createdAt,value
2017-01-13T00:00:01.657Z,989.04
2017-01-13T00:01:12.342Z,988.99
2017-01-13T00:02:22.733Z,988.94
2017-01-13T00:03:32.488Z,988.88
2017-01-13T00:04:42.621Z,988.83
2017-01-13T00:05:52.045Z,988.83
2017-01-13T00:07:02.600Z,988.73
2017-01-13T00:08:12.264Z,988.67
2017-01-13T00:09:21.905Z,988.67
2017-01-13T00:10:31.455Z,988.67
2017-01-13T00:11:40.918Z,988.6
2017-01-13T00:12:51.105Z,988.57
2017-01-13T00:14:04.429Z,988.55
2017-01-13T00:15:14.206Z,988.51
2017-01-13T00:16:25.060Z,988.47
2017-01-13T00:17:35.180Z,988.39
2017-01-13T00:18:46.465Z,988.45
2017-01-13T00:20:00.188Z,988.5
2017-01-13T00:21:12.370Z,988.46
2017-01-13T00:22:23.383Z,988.4
2017-01-13T00:23:34.415Z,988.36
2017-01-13T00:24:46.201Z,988.29
2017-01-13T00:25:57.347Z,988.26
2017-01-13T00:27:08.576Z,988.29
2017-01-13T00:28:19.477Z,988.19
2017-01-13T00:29:28.848Z,988.13
2017-01-13T00:30:39.241Z,988.1
2017-01-13T00:31:55.140Z,988.12
2017-01-13T00:33:05.752Z,988.12
2017-01-13T00:34:16.780Z,988.09
2017-01-13T00:35:28.790Z,988.08
2017-01-13T00:36:40.345Z,988.13
2017-01-13T00:37:50.752Z,988.1
2017-01-13T00:39:03.049Z,988.05
2017-01-13T00:40:14.048Z,988.02
2017-01-13T00:41:24.500Z,987.94
2017-01-13T00:42:37.291Z,987.91
2017-01-13T00:43:50.160Z,987.83
2017-01-13T00:45:01.380Z,987.86
2017-01-13T00:46:13.193Z,987.81
2017-01-13T00:47:24.786Z,987.8
2017-01-13T00:48:35.496Z,987.73
2017-01-13T00:49:46.617Z,987.78
2017-01-13T00:50:56.472Z,987.75
2017-01-13T00:52:08.054Z,987.69
2017-01-13T00:53:20.908Z,987.69
2017-01-13T00:54:32.652Z,987.69
2017-01-13T00:55:45.416Z,987.64
2017-01-13T00:56:56.761Z,987.53
2017-01-13T00:58:07.820Z,987.55
2017-01-13T00:59:18.111Z,987.45
2017-01-13T01:00:30.592Z,987.48
2017-01-13T01:01:41.519Z,987.52
2017-01-13T01:02:53.914Z,987.47
2017-01-13T01:04:07.429Z,987.46
2017-01-13T01:05:19.135Z,987.45
2017-01-13T01:06:29.483Z,987.39
2017-01-13T01:07:41.000Z,987.44
2017-01-13T01:08:52.207Z,987.39
2017-01-13T01:10:03.818Z,987.37
2017-01-13T01:11:15.608Z,987.28
2017-01-13T01:12:25.548Z,987.18
2017-01-13T01:13:36.834Z,987.1
2017-01-13T01:14:48.413Z,987.05
2017-01-13T01:15:58.944Z,987.03
2017-01-13T01:17:10.125Z,987.01
2017-01-13T01:18:21.407Z,986.88
2017-01-13T01:19:32.663Z,986.81
2017-01-13T01:20:43.945Z,986.76
2017-01-13T01:21:55.704Z,986.69
2017-01-13T01:23:06.389Z,986.72
2017-01-13T01:24:17.479Z,986.7
2017-01-13T01:25:28.780Z,986.63
2017-01-13T01:26:39.729Z,986.64
2017-01-13T01:27:50.925Z,986.56
2017-01-13T01:29:02.305Z,986.45
2017-01-13T01:30:13.329Z,986.37
2017-01-13T01:31:24.495Z,986.25
2017-01-13T01:32:36.930Z,986.2
2017-01-13T01:33:50.474Z,986.11
2017-01-13T01:35:01.778Z,986.09
2017-01-13T01:36:12.533Z,986.06
2017-01-13T01:37:23.977Z,986.12
2017-01-13T01:38:35.047Z,986.12
2017-01-13T01:39:45.579Z,986.16
2017-01-13T01:40:56.920Z,986.12
2017-01-13T01:42:08.671Z,986.11
2017-01-13T01:43:19.007Z,986.13
2017-01-13T01:44:31.107Z,986.06
2017-01-13T01:45:41.967Z,985.98
2017-01-13T01:46:52.729Z,985.93
2017-01-13T01:48:04.017Z,985.8
2017-01-13T01:49:15.481Z,985.74
2017-01-13T01:50:26.245Z,985.84
2017-01-13T01:51:37.600Z,985.76
2017-01-13T01:52:49.060Z,985.67
2017-01-13T01:53:59.683Z,985.57
2017-01-13T01:55:11.490Z,985.53
2017-01-13T01:56:22.582Z,985.45
2017-01-13T01:57:33.406Z,985.46
2017-01-13T01:58:45.166Z,985.37
2017-01-13T01:59:56.127Z,985.34
2017-01-13T02:01:06.780Z,985.31
2017-01-13T02:02:19.287Z,985.3
2017-01-13T02:03:29.731Z,985.29
2017-01-13T02:04:40.327Z,985.21
2017-01-13T02:05:52.400Z,985.19
2017-01-13T02:07:03.227Z,985.12
2017-01-13T02:08:14.112Z,985.11
2017-01-13T02:09:25.822Z,985.06
2017-01-13T02:10:37.133Z,985.04
2017-01-13T02:11:47.512Z,985
2017-01-13T02:12:59.403Z,984.88
2017-01-13T02:14:10.309Z,984.82
2017-01-13T02:15:20.885Z,984.69
2017-01-13T02:16:32.845Z,984.63
2017-01-13T02:17:43.842Z,984.55
2017-01-13T02:18:54.735Z,984.53
2017-01-13T02:20:06.796Z,984.5
2017-01-13T02:21:17.688Z,984.36
2017-01-13T02:22:28.163Z,984.31
2017-01-13T02:23:39.941Z,984.28
2017-01-13T02:24:50.999Z,984.22
2017-01-13T02:26:01.952Z,984.15
2017-01-13T02:27:13.317Z,984.1
2017-01-13T02:28:25.057Z,984.01
2017-01-13T02:29:34.083Z,983.94
2017-01-13T02:30:45.810Z,983.88
2017-01-13T02:31:58.057Z,983.84
2017-01-13T02:33:10.383Z,983.8
2017-01-13T02:34:23.643Z,983.69
2017-01-13T02:35:37.310Z,983.66
2017-01-13T02:36:50.211Z,983.58
2017-01-13T02:38:01.144Z,983.58
2017-01-13T02:39:11.714Z,983.53
2017-01-13T02:40:23.743Z,983.52
2017-01-13T02:41:34.695Z,983.49
2017-01-13T02:42:45.279Z,983.5
2017-01-13T02:43:56.622Z,983.45
2017-01-13T02:45:08.390Z,983.4
2017-01-13T02:46:18.795Z,983.4
2017-01-13T02:47:30.574Z,983.29
2017-01-13T02:48:41.993Z,983.31
2017-01-13T02:49:52.411Z,983.26
2017-01-13T02:51:04.072Z,983.19
2017-01-13T02:52:15.395Z,983.09
2017-01-13T02:53:26.080Z,983
2017-01-13T02:54:38.333Z,982.79
2017-01-13T02:55:48.884Z,982.84
2017-01-13T02:56:59.530Z,982.8
2017-01-13T02:58:11.419Z,982.77
2017-01-13T02:59:22.424Z,982.66
2017-01-13T03:00:33.240Z,982.61
2017-01-13T03:01:45.003Z,982.6
2017-01-13T03:02:56.363Z,982.46
2017-01-13T03:04:06.619Z,982.52
2017-01-13T03:05:18.091Z,982.45
2017-01-13T03:06:29.486Z,982.42
2017-01-13T03:07:40.154Z,982.39
2017-01-13T03:08:52.026Z,982.33
2017-01-13T03:10:03.101Z,982.29
2017-01-13T03:11:13.880Z,982.28
2017-01-13T03:12:25.721Z,982.2
2017-01-13T03:13:36.663Z,982.09
2017-01-13T03:14:47.158Z,982.06
2017-01-13T03:15:59.048Z,982.1
2017-01-13T03:17:10.244Z,981.97
2017-01-13T03:18:20.699Z,982.03
2017-01-13T03:19:32.597Z,981.97
2017-01-13T03:20:43.790Z,982
2017-01-13T03:21:55.245Z,981.94
2017-01-13T03:23:06.846Z,981.87
2017-01-13T03:24:17.508Z,981.76
2017-01-13T03:25:27.977Z,981.78
2017-01-13T03:26:39.758Z,981.67
2017-01-13T03:27:50.810Z,981.65
2017-01-13T03:29:01.418Z,981.58
2017-01-13T03:30:13.876Z,981.52
2017-01-13T03:31:24.756Z,981.51
2017-01-13T03:32:35.265Z,981.47
2017-01-13T03:33:47.129Z,981.38
2017-01-13T03:34:58.061Z,981.27
2017-01-13T03:36:11.613Z,981.24
2017-01-13T03:37:22.340Z,981.18
2017-01-13T03:38:35.297Z,981.1
2017-01-13T03:39:46.244Z,981.03
2017-01-13T03:40:56.843Z,981
2017-01-13T03:42:08.853Z,980.94
2017-01-13T03:43:19.657Z,980.85
2017-01-13T03:44:30.253Z,980.78
2017-01-13T03:45:40.906Z,980.77
2017-01-13T03:46:49.887Z,980.72
2017-01-13T03:47:58.869Z,980.79
2017-01-13T03:49:07.846Z,980.7
2017-01-13T03:50:16.834Z,980.73
2017-01-13T03:51:25.814Z,980.75
2017-01-13T03:52:34.798Z,980.77
2017-01-13T03:53:43.787Z,980.63
2017-01-13T03:54:52.765Z,980.6
2017-01-13T03:56:01.747Z,980.55
2017-01-13T03:57:10.725Z,980.56
2017-01-13T03:58:19.706Z,980.52
2017-01-13T03:59:28.686Z,980.52
2017-01-13T04:00:37.676Z,980.44
2017-01-13T04:01:46.653Z,980.43
2017-01-13T04:02:55.630Z,980.34
2017-01-13T04:04:04.608Z,980.28
2017-01-13T04:05:13.588Z,980.27
2017-01-13T04:06:22.570Z,980.2
2017-01-13T04:07:31.553Z,980.24
2017-01-13T04:08:40.530Z,980.19
2017-01-13T04:09:49.507Z,980.23
2017-01-13T04:10:58.536Z,980.16
2017-01-13T04:12:07.514Z,980.15
2017-01-13T04:13:16.491Z,980.03
2017-01-13T04:14:25.497Z,980.11
2017-01-13T04:15:34.482Z,980.02
2017-01-13T04:16:43.464Z,980.1
2017-01-13T04:17:52.447Z,980
2017-01-13T04:19:01.425Z,980.03
2017-01-13T04:20:10.403Z,980.01
2017-01-13T04:21:19.380Z,980.01
2017-01-13T04:22:28.359Z,979.96
2017-01-13T04:23:37.342Z,979.84
2017-01-13T04:24:46.319Z,979.74
2017-01-13T04:25:55.295Z,979.76
2017-01-13T04:27:04.278Z,979.7
2017-01-13T04:28:13.255Z,979.71
2017-01-13T04:29:22.231Z,979.58
2017-01-13T04:30:31.236Z,979.52
2017-01-13T04:31:40.215Z,979.47
2017-01-13T04:32:49.189Z,979.46
2017-01-13T04:33:58.164Z,979.43
2017-01-13T04:35:07.148Z,979.39
2017-01-13T04:36:16.130Z,979.4
2017-01-13T04:37:25.115Z,979.42
2017-01-13T04:38:34.097Z,979.43
2017-01-13T04:39:43.079Z,979.45
2017-01-13T04:40:52.055Z,979.43
2017-01-13T04:42:01.036Z,979.34
2017-01-13T04:43:10.015Z,979.31
2017-01-13T04:44:18.992Z,979.31
2017-01-13T04:45:27.976Z,979.3
2017-01-13T04:46:36.957Z,979.36
2017-01-13T04:47:45.938Z,979.24
2017-01-13T04:48:54.916Z,979.3
2017-01-13T04:50:03.896Z,979.26
2017-01-13T04:51:12.873Z,979.23
2017-01-13T04:52:21.856Z,979.24
2017-01-13T04:53:30.835Z,979.26
2017-01-13T04:54:39.814Z,979.21
2017-01-13T04:55:48.793Z,979.3
2017-01-13T04:56:57.777Z,979.29
2017-01-13T04:58:06.756Z,979.24
2017-01-13T04:59:15.759Z,979.2
2017-01-13T05:00:24.745Z,979.28
2017-01-13T05:01:33.723Z,979.16
2017-01-13T05:02:42.700Z,979.14
2017-01-13T05:03:51.681Z,979.16
2017-01-13T05:05:00.657Z,979.1
2017-01-13T05:06:09.636Z,979.02
2017-01-13T05:07:18.613Z,979.02
2017-01-13T05:08:27.595Z,979.03
2017-01-13T05:09:36.573Z,979.05
2017-01-13T05:10:45.557Z,979.05
2017-01-13T05:11:54.538Z,979.04
2017-01-13T05:13:03.516Z,979.03
2017-01-13T05:14:12.497Z,978.96
2017-01-13T05:15:21.485Z,979.01
2017-01-13T05:16:30.463Z,978.89
2017-01-13T05:17:39.441Z,978.93
2017-01-13T05:18:48.425Z,978.87
2017-01-13T05:19:57.406Z,978.91
2017-01-13T05:21:06.391Z,978.96
2017-01-13T05:22:15.366Z,978.96
2017-01-13T05:23:24.349Z,978.93
2017-01-13T05:24:33.327Z,978.86
2017-01-13T05:25:42.306Z,978.85
2017-01-13T05:26:51.289Z,978.81
2017-01-13T05:28:00.271Z,978.75
2017-01-13T05:29:09.249Z,978.78
2017-01-13T05:30:18.223Z,978.79
2017-01-13T05:31:27.204Z,978.76
2017-01-13T05:32:36.185Z,978.67
2017-01-13T05:33:45.170Z,978.7
2017-01-13T05:34:54.151Z,978.64
2017-01-13T05:36:03.135Z,978.7
2017-01-13T05:37:12.121Z,978.58
2017-01-13T05:38:21.104Z,978.63
2017-01-13T05:39:30.103Z,978.51
2017-01-13T05:40:39.083Z,978.5
2017-01-13T05:41:48.091Z,978.5
2017-01-13T05:42:57.078Z,978.54
2017-01-13T05:44:06.064Z,978.44
2017-01-13T05:45:15.047Z,978.42
2017-01-13T05:46:24.025Z,978.49
2017-01-13T05:47:33.006Z,978.44
2017-01-13T05:48:41.989Z,978.41
2017-01-13T05:49:50.969Z,978.42
2017-01-13T05:50:59.947Z,978.33
2017-01-13T05:52:08.933Z,978.32
2017-01-13T05:53:17.909Z,978.33
2017-01-13T05:54:26.892Z,978.32
2017-01-13T05:55:35.897Z,978.26
2017-01-13T05:56:44.882Z,978.23
2017-01-13T05:57:53.865Z,978.24
2017-01-13T05:59:02.846Z,978.19
2017-01-13T06:00:11.855Z,978.16
2017-01-13T06:01:20.833Z,978.18
2017-01-13T06:02:29.819Z,978.18
2017-01-13T06:03:38.804Z,978.13
2017-01-13T06:04:47.789Z,978.13
2017-01-13T06:05:56.768Z,978.11
2017-01-13T06:07:05.756Z,978.05
2017-01-13T06:08:14.758Z,978.09
2017-01-13T06:09:23.735Z,978.08
2017-01-13T06:10:32.723Z,978.09
2017-01-13T06:11:41.705Z,978.11
2017-01-13T06:12:50.684Z,978.06
2017-01-13T06:13:59.665Z,978.06
2017-01-13T06:15:08.647Z,978
2017-01-13T06:16:17.625Z,977.96
2017-01-13T06:17:26.609Z,977.97
2017-01-13T06:18:35.589Z,977.92
2017-01-13T06:19:44.567Z,977.92
2017-01-13T06:20:53.550Z,977.9
2017-01-13T06:22:02.529Z,977.89
2017-01-13T06:23:11.519Z,977.88
2017-01-13T06:24:20.503Z,977.87
2017-01-13T06:25:29.483Z,977.87
2017-01-13T06:26:38.461Z,977.83
2017-01-13T06:27:47.438Z,977.79
2017-01-13T06:28:56.419Z,977.78
2017-01-13T06:30:05.400Z,977.82
2017-01-13T06:31:14.379Z,977.74
2017-01-13T06:32:23.364Z,977.77
2017-01-13T06:33:32.348Z,977.66
2017-01-13T06:34:41.327Z,977.65
2017-01-13T06:35:50.311Z,977.61
2017-01-13T06:36:59.290Z,977.57
2017-01-13T06:38:08.274Z,977.56
2017-01-13T06:39:17.255Z,977.54
2017-01-13T06:40:26.231Z,977.56
2017-01-13T06:41:35.212Z,977.56
2017-01-13T06:42:44.189Z,977.61
2017-01-13T06:43:53.173Z,977.62
2017-01-13T06:45:02.158Z,977.56
2017-01-13T06:46:11.144Z,977.61
2017-01-13T06:47:20.121Z,977.59
2017-01-13T06:48:29.101Z,977.56
2017-01-13T06:49:38.083Z,977.55
2017-01-13T06:50:47.068Z,977.58
2017-01-13T06:51:56.051Z,977.56
2017-01-13T06:53:05.038Z,977.59
2017-01-13T06:54:14.018Z,977.54
2017-01-13T06:55:23.000Z,977.57
2017-01-13T06:56:31.979Z,977.64
2017-01-13T06:57:40.957Z,977.68
2017-01-13T06:58:49.949Z,977.66
2017-01-13T06:59:58.967Z,977.63
2017-01-13T07:01:07.946Z,977.62
2017-01-13T07:02:16.925Z,977.63
2017-01-13T07:03:25.905Z,977.62
2017-01-13T07:04:34.887Z,977.63
2017-01-13T07:05:43.872Z,977.61
2017-01-13T07:06:52.854Z,977.61
2017-01-13T07:08:01.865Z,977.62
2017-01-13T07:09:10.848Z,977.62
2017-01-13T07:10:19.829Z,977.63
2017-01-13T07:11:28.813Z,977.67
2017-01-13T07:12:37.801Z,977.76
2017-01-13T07:13:46.782Z,977.66
2017-01-13T07:14:55.767Z,977.74
2017-01-13T07:16:04.776Z,977.72
2017-01-13T07:17:13.758Z,977.62
2017-01-13T07:18:22.749Z,977.71
2017-01-13T07:19:31.728Z,977.61
2017-01-13T07:20:40.709Z,977.67
2017-01-13T07:21:49.691Z,977.65
2017-01-13T07:22:58.670Z,977.67
2017-01-13T07:24:07.652Z,977.78
2017-01-13T07:25:16.630Z,977.71
2017-01-13T07:26:25.611Z,977.7
2017-01-13T07:27:34.599Z,977.7
2017-01-13T07:28:43.578Z,977.68
2017-01-13T07:29:52.565Z,977.71
2017-01-13T07:31:01.553Z,977.7
2017-01-13T07:32:10.535Z,977.73
2017-01-13T07:33:19.519Z,977.74
2017-01-13T07:34:28.505Z,977.73
2017-01-13T07:35:37.488Z,977.62
2017-01-13T07:36:46.467Z,977.72
2017-01-13T07:37:55.450Z,977.77
2017-01-13T07:39:04.434Z,977.74
2017-01-13T07:40:13.414Z,977.71
2017-01-13T07:41:22.393Z,977.76
2017-01-13T07:42:31.377Z,977.78
2017-01-13T07:43:40.357Z,977.76
2017-01-13T07:44:49.340Z,977.73
2017-01-13T07:45:58.317Z,977.77
2017-01-13T07:47:07.302Z,977.8
2017-01-13T07:48:16.300Z,977.79
2017-01-13T07:49:25.294Z,977.77
2017-01-13T07:50:34.272Z,977.81
2017-01-13T07:51:43.255Z,977.79
2017-01-13T07:52:52.243Z,977.81
2017-01-13T07:54:01.232Z,977.88
2017-01-13T07:55:10.217Z,977.82
2017-01-13T07:56:19.202Z,977.9
2017-01-13T07:57:28.193Z,977.88
2017-01-13T07:58:37.187Z,977.9
2017-01-13T07:59:46.174Z,977.95
2017-01-13T08:00:55.152Z,977.95
2017-01-13T08:02:04.132Z,977.94
2017-01-13T08:03:13.117Z,977.93
2017-01-13T08:04:22.104Z,977.94
2017-01-13T08:05:31.091Z,978.02
2017-01-13T08:06:40.080Z,978.03
2017-01-13T08:07:49.093Z,978.12
2017-01-13T08:08:58.078Z,978.03
2017-01-13T08:10:07.093Z,978.06
2017-01-13T08:11:16.083Z,978.04
2017-01-13T08:12:25.066Z,978
2017-01-13T08:13:34.045Z,978.06
2017-01-13T08:14:43.037Z,978.04
2017-01-13T08:15:52.024Z,978.03
2017-01-13T08:17:01.008Z,978.05
2017-01-13T08:18:09.985Z,978.09
2017-01-13T08:19:18.968Z,978.09
2017-01-13T08:20:27.950Z,978.07
2017-01-13T08:21:36.950Z,978.1
2017-01-13T08:22:45.933Z,978.12
2017-01-13T08:23:54.924Z,978.18
2017-01-13T08:25:03.901Z,978.12
2017-01-13T08:26:12.880Z,978.12
2017-01-13T08:27:21.867Z,978.14
2017-01-13T08:28:30.846Z,978.18
2017-01-13T08:29:39.829Z,978.19
2017-01-13T08:30:48.812Z,978.17
2017-01-13T08:31:57.816Z,978.19
2017-01-13T08:33:06.802Z,978.25
2017-01-13T08:34:15.786Z,978.23
2017-01-13T08:35:24.766Z,978.27
2017-01-13T08:36:33.748Z,978.31
2017-01-13T08:37:42.726Z,978.29
2017-01-13T08:38:51.702Z,978.3
2017-01-13T08:40:00.699Z,978.34
2017-01-13T08:41:09.676Z,978.37
2017-01-13T08:42:18.663Z,978.36
2017-01-13T08:43:27.644Z,978.42
2017-01-13T08:44:36.657Z,978.39
2017-01-13T08:45:45.732Z,978.42
2017-01-13T08:46:54.717Z,978.43
2017-01-13T08:48:03.707Z,978.43
2017-01-13T08:49:12.747Z,978.45
2017-01-13T08:50:21.781Z,978.47
2017-01-13T08:51:30.831Z,978.46
2017-01-13T08:52:39.845Z,978.48
2017-01-13T08:53:48.832Z,978.45
2017-01-13T08:54:57.817Z,978.47
2017-01-13T08:56:06.807Z,978.53
2017-01-13T08:57:15.796Z,978.47
2017-01-13T08:58:24.785Z,978.49
2017-01-13T08:59:33.770Z,978.53
2017-01-13T09:00:42.753Z,978.56
2017-01-13T09:01:51.736Z,978.59
2017-01-13T09:03:00.718Z,978.58
2017-01-13T09:04:09.704Z,978.62
2017-01-13T09:05:19.024Z,978.61
2017-01-13T09:06:31.705Z,978.65
2017-01-13T09:07:44.774Z,978.67
2017-01-13T09:08:56.117Z,978.65
2017-01-13T09:10:07.039Z,978.72
2017-01-13T09:11:17.390Z,978.69
2017-01-13T09:12:28.454Z,978.72
2017-01-13T09:13:39.070Z,978.78
2017-01-13T09:14:49.642Z,978.78
2017-01-13T09:15:59.007Z,978.81
2017-01-13T09:17:08.074Z,978.87
2017-01-13T09:18:17.428Z,978.87
2017-01-13T09:19:26.953Z,978.89
2017-01-13T09:20:37.046Z,978.93
2017-01-13T09:21:47.091Z,978.9
2017-01-13T09:22:57.363Z,978.99
2017-01-13T09:24:06.975Z,978.92
2017-01-13T09:25:16.229Z,978.98
2017-01-13T09:26:26.307Z,978.99
2017-01-13T09:27:35.871Z,979.06
2017-01-13T09:28:46.256Z,978.98
2017-01-13T09:29:57.272Z,979
2017-01-13T09:31:06.286Z,979.08
2017-01-13T09:32:15.296Z,979.15
2017-01-13T09:33:24.668Z,979.17
2017-01-13T09:34:33.854Z,979.14
2017-01-13T09:35:42.833Z,979.19
2017-01-13T09:36:52.293Z,979.22
2017-01-13T09:38:01.892Z,979.25
2017-01-13T09:39:11.434Z,979.25
2017-01-13T09:40:20.424Z,979.22
2017-01-13T09:41:29.410Z,979.2
2017-01-13T09:42:38.398Z,979.25
2017-01-13T09:43:47.385Z,979.25
2017-01-13T09:44:56.376Z,979.27
2017-01-13T09:46:05.368Z,979.27
2017-01-13T09:47:14.353Z,979.3
2017-01-13T09:48:23.342Z,979.27
2017-01-13T09:49:32.323Z,979.3
2017-01-13T09:50:41.307Z,979.31
2017-01-13T09:51:50.291Z,979.34
2017-01-13T09:52:59.271Z,979.36
2017-01-13T09:54:08.257Z,979.41
2017-01-13T09:55:17.275Z,979.43
2017-01-13T09:56:26.272Z,979.42
2017-01-13T09:57:35.249Z,979.39
2017-01-13T09:58:44.234Z,979.44
2017-01-13T09:59:53.215Z,979.44
2017-01-13T10:01:02.194Z,979.43
2017-01-13T10:02:11.187Z,979.45
2017-01-13T10:03:20.172Z,979.52
2017-01-13T10:04:29.159Z,979.49
2017-01-13T10:05:38.144Z,979.47
2017-01-13T10:06:47.131Z,979.5
2017-01-13T10:07:56.276Z,979.58
2017-01-13T10:09:05.620Z,979.56
2017-01-13T10:10:14.605Z,979.56
2017-01-13T10:11:23.994Z,979.61
2017-01-13T10:12:33.002Z,979.61
2017-01-13T10:13:42.405Z,979.59
2017-01-13T10:14:51.417Z,979.65
2017-01-13T10:16:00.405Z,979.7
2017-01-13T10:17:09.386Z,979.62
2017-01-13T10:18:18.369Z,979.67
2017-01-13T10:19:27.493Z,979.65
2017-01-13T10:20:36.471Z,979.71
2017-01-13T10:21:45.454Z,979.7
2017-01-13T10:22:54.437Z,979.71
2017-01-13T10:24:03.420Z,979.75
2017-01-13T10:25:12.668Z,979.75
2017-01-13T10:26:23.487Z,979.74
2017-01-13T10:27:33.568Z,979.79
2017-01-13T10:28:43.269Z,979.85
2017-01-13T10:29:52.957Z,979.81
2017-01-13T10:31:03.216Z,979.9
2017-01-13T10:32:13.787Z,979.92
2017-01-13T10:33:24.058Z,980.02
2017-01-13T10:34:34.299Z,979.98
2017-01-13T10:35:45.125Z,980.01
2017-01-13T10:36:55.548Z,979.98
2017-01-13T10:38:05.868Z,980.06
2017-01-13T10:39:16.416Z,980.07
2017-01-13T10:40:26.879Z,980.07
2017-01-13T10:41:37.534Z,980.02
2017-01-13T10:42:46.523Z,980.09
2017-01-13T10:43:55.787Z,980.06
2017-01-13T10:45:04.983Z,980.1
2017-01-13T10:46:14.950Z,980.15
2017-01-13T10:47:25.372Z,980.1
2017-01-13T10:48:37.188Z,980.12
2017-01-13T10:49:52.888Z,980.23
2017-01-13T10:51:02.669Z,980.17
2017-01-13T10:52:13.083Z,980.2
2017-01-13T10:53:22.069Z,980.21
2017-01-13T10:54:31.110Z,980.27
2017-01-13T10:55:40.361Z,980.26
2017-01-13T10:56:49.348Z,980.31
2017-01-13T10:57:58.590Z,980.26
2017-01-13T10:59:08.616Z,980.3
2017-01-13T11:00:17.931Z,980.35
2017-01-13T11:01:27.561Z,980.39
2017-01-13T11:02:37.362Z,980.4
2017-01-13T11:03:46.964Z,980.38
2017-01-13T11:04:56.516Z,980.39
2017-01-13T11:06:06.034Z,980.41
2017-01-13T11:07:15.526Z,980.45
2017-01-13T11:08:25.329Z,980.44
2017-01-13T11:09:34.578Z,980.46
2017-01-13T11:10:44.323Z,980.46
2017-01-13T11:11:54.309Z,980.5
2017-01-13T11:13:03.606Z,980.53
2017-01-13T11:14:12.917Z,980.56
2017-01-13T11:15:21.902Z,980.57
2017-01-13T11:16:30.890Z,980.62
2017-01-13T11:17:39.874Z,980.68
2017-01-13T11:18:48.859Z,980.66
2017-01-13T11:19:57.844Z,980.76
2017-01-13T11:21:06.826Z,980.72
2017-01-13T11:22:15.817Z,980.69
2017-01-13T11:23:24.804Z,980.73
2017-01-13T11:24:34.079Z,980.8
2017-01-13T11:25:43.064Z,980.77
2017-01-13T11:26:52.051Z,980.84
2017-01-13T11:28:01.035Z,980.84
2017-01-13T11:29:10.017Z,980.91
2017-01-13T11:30:19.005Z,980.87
2017-01-13T11:31:27.991Z,980.93
2017-01-13T11:32:36.987Z,980.92
2017-01-13T11:33:45.981Z,980.96
2017-01-13T11:34:54.963Z,981.02
2017-01-13T11:36:03.946Z,981.02
2017-01-13T11:37:12.929Z,981.02
2017-01-13T11:38:21.908Z,981.06
2017-01-13T11:39:30.897Z,981.16
2017-01-13T11:40:39.886Z,981.15
2017-01-13T11:41:48.865Z,981.2
2017-01-13T11:42:57.862Z,981.26
2017-01-13T11:44:06.847Z,981.34
2017-01-13T11:45:15.826Z,981.33
2017-01-13T11:46:24.816Z,981.43
2017-01-13T11:47:33.798Z,981.4
2017-01-13T11:48:42.781Z,981.45
2017-01-13T11:49:51.761Z,981.46
2017-01-13T11:51:00.741Z,981.52
2017-01-13T11:52:09.719Z,981.5
2017-01-13T11:53:18.701Z,981.5
2017-01-13T11:54:27.681Z,981.54
2017-01-13T11:55:36.667Z,981.64
2017-01-13T11:56:45.653Z,981.64
2017-01-13T11:57:54.636Z,981.65
2017-01-13T11:59:03.619Z,981.7
2017-01-13T12:00:12.604Z,981.72
2017-01-13T12:01:21.593Z,981.81
2017-01-13T12:02:30.578Z,981.8
2017-01-13T12:03:39.563Z,981.85
2017-01-13T12:04:48.544Z,981.89
2017-01-13T12:05:57.556Z,981.91
2017-01-13T12:07:06.691Z,981.91
2017-01-13T12:08:16.261Z,981.95
2017-01-13T12:09:25.942Z,982.03
2017-01-13T12:10:35.564Z,982.01
2017-01-13T12:11:44.548Z,982.03
2017-01-13T12:12:53.536Z,982.06
2017-01-13T12:14:02.571Z,982.11
2017-01-13T12:15:11.549Z,982.2
2017-01-13T12:16:20.544Z,982.21
2017-01-13T12:17:29.535Z,982.29
2017-01-13T12:18:38.780Z,982.3
2017-01-13T12:19:47.762Z,982.32
2017-01-13T12:20:57.173Z,982.41
2017-01-13T12:22:06.149Z,982.5
2017-01-13T12:23:15.136Z,982.44
2017-01-13T12:24:24.136Z,982.5
2017-01-13T12:25:33.124Z,982.5
2017-01-13T12:26:42.135Z,982.56
2017-01-13T12:27:51.118Z,982.63
2017-01-13T12:29:00.103Z,982.69
2017-01-13T12:30:09.085Z,982.7
2017-01-13T12:31:18.068Z,982.82
2017-01-13T12:32:27.049Z,982.8
2017-01-13T12:33:36.065Z,982.92
2017-01-13T12:34:45.050Z,982.95
2017-01-13T12:35:54.038Z,982.96
2017-01-13T12:37:03.052Z,982.97
2017-01-13T12:38:12.147Z,983.03
2017-01-13T12:39:21.128Z,983.14
2017-01-13T12:40:30.117Z,983.18
2017-01-13T12:41:39.101Z,983.18
2017-01-13T12:42:48.076Z,983.22
2017-01-13T12:43:57.060Z,983.31
2017-01-13T12:45:06.045Z,983.32
2017-01-13T12:46:15.028Z,983.38
2017-01-13T12:47:24.012Z,983.33
2017-01-13T12:48:32.999Z,983.44
2017-01-13T12:49:41.983Z,983.58
2017-01-13T12:50:50.991Z,983.55
2017-01-13T12:51:59.981Z,983.59
2017-01-13T12:53:08.966Z,983.58
2017-01-13T12:54:17.953Z,983.66
2017-01-13T12:55:26.939Z,983.66
2017-01-13T12:56:35.977Z,983.78
2017-01-13T12:57:44.964Z,983.8
2017-01-13T12:58:53.949Z,983.85
2017-01-13T13:00:02.966Z,983.88
2017-01-13T13:01:12.112Z,983.95
2017-01-13T13:02:21.368Z,984.01
2017-01-13T13:03:30.420Z,984.06
2017-01-13T13:04:39.420Z,984.14
2017-01-13T13:05:48.540Z,984.21
2017-01-13T13:06:57.528Z,984.29
2017-01-13T13:08:07.528Z,984.32
2017-01-13T13:09:19.348Z,984.35
2017-01-13T13:10:28.329Z,984.38
2017-01-13T13:11:37.849Z,984.45
2017-01-13T13:12:46.841Z,984.47
2017-01-13T13:13:55.825Z,984.57
2017-01-13T13:15:04.805Z,984.6
2017-01-13T13:16:13.786Z,984.62
2017-01-13T13:17:22.768Z,984.68
2017-01-13T13:18:31.747Z,984.69
2017-01-13T13:19:40.743Z,984.74
2017-01-13T13:20:49.724Z,984.76
2017-01-13T13:21:58.709Z,984.77
2017-01-13T13:23:07.700Z,984.85
2017-01-13T13:24:16.683Z,984.92
2017-01-13T13:25:25.663Z,984.93
2017-01-13T13:26:34.645Z,984.98
2017-01-13T13:27:43.628Z,985.06
2017-01-13T13:28:52.617Z,985.08
2017-01-13T13:30:01.598Z,985.08
2017-01-13T13:31:10.581Z,985.1
2017-01-13T13:32:19.565Z,985.16
2017-01-13T13:33:28.571Z,985.2
2017-01-13T13:34:37.554Z,985.25
2017-01-13T13:35:46.537Z,985.22
2017-01-13T13:36:55.524Z,985.3
2017-01-13T13:38:04.517Z,985.38
2017-01-13T13:39:13.498Z,985.44
2017-01-13T13:40:22.483Z,985.45
2017-01-13T13:41:31.463Z,985.48
2017-01-13T13:42:40.445Z,985.53
2017-01-13T13:43:49.426Z,985.56
2017-01-13T13:44:58.409Z,985.61
2017-01-13T13:46:07.395Z,985.67
2017-01-13T13:47:16.382Z,985.71
2017-01-13T13:48:25.364Z,985.73
2017-01-13T13:49:34.352Z,985.79
2017-01-13T13:50:43.335Z,985.82
2017-01-13T13:51:52.315Z,985.88
2017-01-13T13:53:01.297Z,985.95
2017-01-13T13:54:10.280Z,985.91
2017-01-13T13:55:19.269Z,985.96
2017-01-13T13:56:28.250Z,985.96
2017-01-13T13:57:37.237Z,986.05
2017-01-13T13:58:46.220Z,986.04
2017-01-13T13:59:55.228Z,986.05
2017-01-13T14:01:04.213Z,986.1
2017-01-13T14:02:13.193Z,986.16
2017-01-13T14:03:22.174Z,986.14
2017-01-13T14:04:31.155Z,986.24
2017-01-13T14:05:40.133Z,986.34
2017-01-13T14:06:49.113Z,986.34
2017-01-13T14:07:58.094Z,986.4
2017-01-13T14:09:07.078Z,986.47
2017-01-13T14:10:16.062Z,986.51
2017-01-13T14:11:25.088Z,986.51
2017-01-13T14:12:34.066Z,986.51
2017-01-13T14:13:43.044Z,986.63
2017-01-13T14:14:52.026Z,986.76
2017-01-13T14:16:01.006Z,986.73
2017-01-13T14:17:09.987Z,986.86
2017-01-13T14:18:18.964Z,986.89
2017-01-13T14:19:27.944Z,987.01
2017-01-13T14:20:36.949Z,987.04
2017-01-13T14:21:45.937Z,987.1
2017-01-13T14:22:54.925Z,987.21
2017-01-13T14:24:04.318Z,987.18
2017-01-13T14:25:16.726Z,987.29
2017-01-13T14:26:27.576Z,987.24
2017-01-13T14:27:38.037Z,987.44
2017-01-13T14:28:48.849Z,987.48
2017-01-13T14:29:59.822Z,987.54
2017-01-13T14:31:10.517Z,987.62
2017-01-13T14:32:22.878Z,987.65